Time;durP1;ratioP1;P1;durP2;ratioP2;P2;SDS_P1;SDS_P2;PMS_P1;PMS_P2;Temp;Humidity;BMP_temperature;BMP_pressure;BME280_temperature;BME280_humidity;BME280_pressure;Samples;Min_cycle;Max_cycle;Signal;HPM_P1;HPM_P2
2022/05/04 00:01:00;;;;;;;10.73;3.97;;;;;;;;;;359005;149;860748;-52
2022/05/04 00:02:01;;;;;;;7.31;3.97;;;;;;;;;;359085;148;864910;-52
2022/05/04 00:03:03;;;;;;;5.28;2.99;;;;;;;;;;359008;149;864861;-52
2022/05/04 00:04:06;;;;;;;5.28;3.51;;;;;;;;;;358697;148;857349;-52
2022/05/04 00:05:07;;;;;;;8.23;3.50;;;;;;;;;;348617;152;857831;-52
2022/05/04 00:06:10;;;;;;;5.23;3.98;;;;;;;;;;347313;152;859147;-52
2022/05/04 00:07:11;;;;;;;4.55;3.55;;;;;;;;;;347355;152;856080;-53
2022/05/04 00:08:13;;;;;;;5.87;3.18;;;;;;;;;;347334;152;857797;-52
2022/05/04 00:09:14;;;;;;;4.46;3.18;;;;;;;;;;347308;152;857255;-53
2022/05/04 00:10:17;;;;;;;5.55;3.53;;;;;;;;;;347203;152;859500;-53
2022/05/04 00:11:18;;;;;;;6.17;3.85;;;;;;;;;;350410;152;864821;-52
2022/05/04 00:12:20;;;;;;;7.57;4.02;;;;;;;;;;353272;152;857375;-53
2022/05/04 00:13:21;;;;;;;5.33;3.87;;;;;;;;;;353402;152;856293;-53
2022/05/04 00:14:25;;;;;;;7.74;4.39;;;;;;;;;;353462;152;856399;-52
2022/05/04 00:15:26;;;;;;;7.79;3.87;;;;;;;;;;353411;152;858996;-52
2022/05/04 00:16:28;;;;;;;6.06;4.09;;;;;;;;;;353407;149;857615;-52
2022/05/04 00:17:30;;;;;;;5.44;3.66;;;;;;;;;;353397;152;858021;-54
2022/05/04 00:18:31;;;;;;;8.42;3.99;;;;;;;;;;353385;152;859032;-53
2022/05/04 00:19:33;;;;;;;6.06;3.76;;;;;;;;;;353400;152;857321;-52
2022/05/04 00:20:34;;;;;;;8.89;3.72;;;;;;;;;;353398;152;864864;-53
2022/05/04 00:21:37;;;;;;;8.32;4.13;;;;;;;;;;353354;152;857183;-53
2022/05/04 00:22:39;;;;;;;5.71;3.63;;;;;;;;;;353301;150;857725;-52
2022/05/04 00:23:40;;;;;;;7.88;3.81;;;;;;;;;;353196;152;864950;-52
2022/05/04 00:24:41;;;;;;;6.91;3.99;;;;;;;;;;353340;152;857635;-51
2022/05/04 00:25:43;;;;;;;5.80;4.03;;;;;;;;;;353179;152;857326;-52
2022/05/04 00:26:45;;;;;;;5.67;3.40;;;;;;;;;;353075;152;857413;-52
2022/05/04 00:27:47;;;;;;;6.28;4.11;;;;;;;;;;353186;152;864853;-52
2022/05/04 00:28:48;;;;;;;8.39;4.17;;;;;;;;;;353133;152;864884;-54
2022/05/04 00:29:50;;;;;;;7.69;3.79;;;;;;;;;;353023;152;865184;-53
2022/05/04 00:30:52;;;;;;;3.74;3.01;;;;;;;;;;352242;153;856270;-52
2022/05/04 00:31:54;;;;;;;5.30;3.21;;;;;;;;;;348033;152;857281;-53
2022/05/04 00:32:55;;;;;;;5.38;2.94;;;;;;;;;;347229;155;857286;-53
2022/05/04 00:33:57;;;;;;;7.59;4.14;;;;;;;;;;347194;155;857293;-52
2022/05/04 00:34:58;;;;;;;10.41;3.69;;;;;;;;;;347119;155;864743;-52
2022/05/04 00:36:00;;;;;;;6.07;3.34;;;;;;;;;;347237;155;857207;-52
2022/05/04 00:37:01;;;;;;;5.41;3.29;;;;;;;;;;347257;155;857193;-51
2022/05/04 00:38:03;;;;;;;5.90;3.41;;;;;;;;;;347198;155;858049;-52
2022/05/04 00:39:04;;;;;;;9.04;4.56;;;;;;;;;;347114;154;866544;-53
2022/05/04 00:40:07;;;;;;;7.63;4.51;;;;;;;;;;351936;152;857236;-51
2022/05/04 00:41:09;;;;;;;6.67;4.13;;;;;;;;;;353372;152;857686;-52
2022/05/04 00:42:12;;;;;;;7.09;3.99;;;;;;;;;;353403;152;858991;-53
2022/05/04 00:43:20;;;;;;;6.48;4.03;;;;;;;;;;353094;152;866412;-52
2022/05/04 00:44:22;;;;;;;6.63;4.47;;;;;;;;;;351170;152;863933;-53
2022/05/04 00:45:23;;;;;;;9.16;4.06;;;;;;;;;;353256;151;856414;-53
2022/05/04 00:46:25;;;;;;;6.31;4.06;;;;;;;;;;353158;152;866487;-53
2022/05/04 00:47:27;;;;;;;6.89;4.30;;;;;;;;;;353123;150;865863;-54
2022/05/04 00:48:28;;;;;;;6.91;3.81;;;;;;;;;;349831;150;857857;-53
2022/05/04 00:49:30;;;;;;;5.76;3.86;;;;;;;;;;353205;150;857142;-53
2022/05/04 00:50:32;;;;;;;7.49;3.94;;;;;;;;;;352127;152;857172;-52
2022/05/04 00:51:33;;;;;;;5.83;4.18;;;;;;;;;;347092;154;857245;-52
2022/05/04 00:52:35;;;;;;;8.71;4.24;;;;;;;;;;347237;152;857340;-52
2022/05/04 00:53:37;;;;;;;4.62;3.69;;;;;;;;;;347718;152;857186;-54
2022/05/04 00:54:39;;;;;;;5.42;4.05;;;;;;;;;;351646;152;857212;-52
2022/05/04 00:55:40;;;;;;;6.05;4.14;;;;;;;;;;347065;152;864841;-56
2022/05/04 00:56:42;;;;;;;6.94;3.91;;;;;;;;;;347102;152;864924;-53
2022/05/04 00:59:03;;;;;;;5.90;3.81;;;;;;;;;;352067;152;865573;-52
2022/05/04 01:00:05;;;;;;;7.85;3.67;;;;;;;;;;348429;152;857320;-54
2022/05/04 01:01:07;;;;;;;4.95;3.11;;;;;;;;;;347162;152;865740;-52
2022/05/04 01:02:09;;;;;;;7.34;3.95;;;;;;;;;;350183;152;860314;-53
2022/05/04 01:03:10;;;;;;;4.19;2.87;;;;;;;;;;353173;152;857085;-53
2022/05/04 01:04:12;;;;;;;6.96;3.87;;;;;;;;;;353220;152;857198;-53
2022/05/04 01:05:13;;;;;;;5.56;3.16;;;;;;;;;;350496;151;857290;-52
2022/05/04 01:06:15;;;;;;;7.87;3.62;;;;;;;;;;351166;151;857426;-52
2022/05/04 01:07:18;;;;;;;6.55;3.89;;;;;;;;;;352846;150;856528;-53
2022/05/04 01:08:19;;;;;;;5.67;3.91;;;;;;;;;;352832;150;857962;-53
2022/05/04 01:09:21;;;;;;;6.84;3.99;;;;;;;;;;357327;150;856558;-52
2022/05/04 01:10:23;;;;;;;5.66;3.99;;;;;;;;;;356998;150;858276;-53
2022/05/04 01:11:24;;;;;;;9.86;3.77;;;;;;;;;;350874;153;865024;-52
2022/05/04 01:12:26;;;;;;;4.50;3.55;;;;;;;;;;351065;150;866587;-52
2022/05/04 01:13:27;;;;;;;8.86;4.20;;;;;;;;;;350891;153;857644;-52
2022/05/04 01:14:29;;;;;;;7.64;4.17;;;;;;;;;;356328;150;858805;-52
2022/05/04 01:15:30;;;;;;;10.38;4.49;;;;;;;;;;357255;150;858769;-54
2022/05/04 01:16:33;;;;;;;7.79;4.36;;;;;;;;;;356047;150;859122;-52
2022/05/04 01:17:34;;;;;;;6.07;4.14;;;;;;;;;;357236;150;865701;-52
2022/05/04 01:18:36;;;;;;;6.69;4.11;;;;;;;;;;357036;150;859636;-52
2022/05/04 01:19:37;;;;;;;7.25;3.95;;;;;;;;;;357231;150;857076;-53
2022/05/04 01:20:39;;;;;;;5.64;4.19;;;;;;;;;;357143;150;857551;-53
2022/05/04 01:21:40;;;;;;;7.87;4.36;;;;;;;;;;357177;150;857361;-53
2022/05/04 01:22:42;;;;;;;9.77;4.14;;;;;;;;;;357206;150;857264;-53
2022/05/04 01:23:44;;;;;;;9.97;4.27;;;;;;;;;;356606;150;857322;-53
2022/05/04 01:24:45;;;;;;;7.71;4.16;;;;;;;;;;351011;150;865042;-53
2022/05/04 01:25:47;;;;;;;3.80;2.58;;;;;;;;;;354231;150;857245;-52
2022/05/04 01:26:48;;;;;;;5.92;3.03;;;;;;;;;;357216;150;857242;-54
2022/05/04 01:27:50;;;;;;;5.94;3.71;;;;;;;;;;357368;150;864796;-53
2022/05/04 01:28:51;;;;;;;8.29;3.30;;;;;;;;;;357484;150;857337;-52
2022/05/04 01:29:53;;;;;;;6.57;3.44;;;;;;;;;;357385;150;857259;-52
2022/05/04 01:30:54;;;;;;;7.27;3.83;;;;;;;;;;357398;150;857236;-52
2022/05/04 01:31:56;;;;;;;7.32;3.77;;;;;;;;;;357460;150;857242;-52
2022/05/04 01:32:57;;;;;;;8.64;3.70;;;;;;;;;;357396;150;857255;-51
2022/05/04 01:34:00;;;;;;;8.31;3.59;;;;;;;;;;357442;150;857094;-52
2022/05/04 01:35:01;;;;;;;5.57;3.87;;;;;;;;;;357393;150;857175;-52
2022/05/04 01:36:03;;;;;;;7.53;4.11;;;;;;;;;;357430;150;864944;-52
2022/05/04 01:37:04;;;;;;;8.95;4.03;;;;;;;;;;357385;150;864772;-53
2022/05/04 01:38:06;;;;;;;5.18;3.76;;;;;;;;;;359146;150;858336;-52
2022/05/04 01:39:07;;;;;;;7.75;4.32;;;;;;;;;;359173;150;857791;-52
2022/05/04 01:40:10;;;;;;;8.54;4.42;;;;;;;;;;354242;150;857423;-52
2022/05/04 01:42:31;;;;;;;7.63;4.12;;;;;;;;;;352722;152;859685;-53
2022/05/04 01:43:33;;;;;;;10.27;4.26;;;;;;;;;;352976;152;859602;-53
2022/05/04 01:44:34;;;;;;;6.11;3.94;;;;;;;;;;355940;150;865032;-52
2022/05/04 01:45:36;;;;;;;7.97;4.79;;;;;;;;;;356785;150;857338;-52
2022/05/04 01:46:37;;;;;;;6.56;4.15;;;;;;;;;;352999;152;857175;-53
2022/05/04 01:47:39;;;;;;;8.16;4.39;;;;;;;;;;352529;150;864728;-53
2022/05/04 01:48:40;;;;;;;12.54;4.97;;;;;;;;;;350960;150;865033;-52
2022/05/04 01:49:42;;;;;;;6.07;4.12;;;;;;;;;;351013;150;858318;-52
2022/05/04 01:50:44;;;;;;;9.30;4.44;;;;;;;;;;351008;150;857857;-52
2022/05/04 01:51:45;;;;;;;7.02;3.97;;;;;;;;;;350968;151;866776;-52
2022/05/04 01:52:47;;;;;;;7.11;4.26;;;;;;;;;;351098;151;858970;-52
2022/05/04 01:53:48;;;;;;;6.96;2.96;;;;;;;;;;352721;150;858888;-53
2022/05/04 01:54:56;;;;;;;8.66;3.44;;;;;;;;;;357051;150;858250;-52
2022/05/04 01:55:57;;;;;;;5.26;3.13;;;;;;;;;;356962;150;857745;-52
2022/05/04 01:56:59;;;;;;;3.44;2.86;;;;;;;;;;357141;150;857690;-52
2022/05/04 01:58:01;;;;;;;7.10;4.00;;;;;;;;;;357058;150;864838;-52
2022/05/04 01:59:02;;;;;;;7.07;3.68;;;;;;;;;;356406;150;857531;-52
2022/05/04 02:00:05;;;;;;;4.17;2.77;;;;;;;;;;352086;151;859525;-52
2022/05/04 02:01:07;;;;;;;8.34;3.75;;;;;;;;;;350916;150;865402;-52
2022/05/04 02:14:28;;;;;;;9.60;4.33;;;;;;;9.68;58.00;99510.48;369691;142;870175;-53
2022/05/04 02:15:30;;;;;;;7.03;4.09;;;;;;;9.63;58.26;99509.68;366697;147;857633;-53
2022/05/04 02:16:32;;;;;;;5.31;3.61;;;;;;;9.70;56.76;99507.87;368215;146;857249;-52
2022/05/04 02:17:34;;;;;;;4.96;3.99;;;;;;;9.73;56.53;99511.29;366098;147;859124;-53
2022/05/04 02:18:36;;;;;;;8.88;4.66;;;;;;;9.73;57.86;99516.45;365793;147;858718;-52
2022/05/04 02:19:38;;;;;;;9.33;4.16;;;;;;;9.71;57.65;99518.20;365825;146;858974;-53
2022/05/04 02:20:40;;;;;;;8.47;4.29;;;;;;;9.63;56.88;99526.03;359461;147;865128;-53
2022/05/04 02:21:42;;;;;;;5.85;3.63;;;;;;;9.61;56.96;99520.02;359653;147;857805;-52
2022/05/04 02:22:44;;;;;;;8.33;3.29;;;;;;;9.61;57.61;99522.61;359273;150;857295;-52
2022/05/04 02:23:46;;;;;;;6.99;3.70;;;;;;;9.61;57.32;99521.77;359095;149;857396;-52
2022/05/04 02:24:47;;;;;;;8.74;4.37;;;;;;;9.60;56.33;99522.64;359103;149;864816;-52
2022/05/04 02:25:49;;;;;;;4.77;3.48;;;;;;;9.59;57.63;99526.94;359260;150;864890;-52
2022/05/04 02:26:51;;;;;;;4.20;3.19;;;;;;;9.57;56.62;99520.09;359117;149;857162;-52
2022/05/04 02:27:53;;;;;;;6.57;3.97;;;;;;;9.56;56.83;99516.63;359043;150;864837;-52
2022/05/04 02:28:54;;;;;;;11.02;3.84;;;;;;;9.54;56.75;99515.80;359376;149;859041;-52
2022/05/04 02:29:56;;;;;;;13.10;4.30;;;;;;;9.55;56.31;99524.42;359294;149;866353;-53
2022/05/04 02:30:59;;;;;;;7.04;3.87;;;;;;;9.59;56.94;99515.76;359346;150;865053;-52
2022/05/04 02:32:00;;;;;;;7.24;4.29;;;;;;;9.54;57.03;99520.09;359094;150;857250;-52
2022/05/04 02:33:02;;;;;;;9.96;4.63;;;;;;;9.53;57.36;99523.55;359187;149;857115;-52
2022/05/04 02:34:04;;;;;;;7.43;4.12;;;;;;;;;;359137;149;865246;-52
2022/05/04 02:37:56;;;;;;;6.41;4.31;;;;;;;;;;359239;150;859172;-52
2022/05/04 02:38:57;;;;;;;;;;;;;;;;;;362126;150;858657;-52
2022/05/04 02:39:58;;;;;;;7.08;4.08;;;;;;;;;;354601;149;858827;-52
2022/05/04 02:41:00;;;;;;;8.37;4.06;;;;;;;;;;352061;147;857953;-52
2022/05/04 02:42:02;;;;;;;6.99;3.89;;;;;;;;;;352766;152;857467;-52
2022/05/04 02:43:06;;;;;;;10.05;4.44;;;;;;;;;;352586;152;857365;-53
2022/05/04 02:44:07;;;;;;;8.96;4.18;;;;;;;;;;354161;150;864790;-52
2022/05/04 02:45:10;;;;;;;6.91;3.69;;;;;;;;;;359225;149;858196;-52
2022/05/04 02:46:13;;;;;;;7.91;4.44;;;;;;;;;;359173;149;857233;-52
2022/05/04 02:47:14;;;;;;;7.18;3.96;;;;;;;;;;359173;150;859606;-53
2022/05/04 02:48:16;;;;;;;7.63;4.16;;;;;;;;;;359178;150;863749;-52
2022/05/04 02:49:17;;;;;;;5.47;2.90;;;;;;;;;;358929;149;859449;-52
2022/05/04 02:50:19;;;;;;;6.14;3.79;;;;;;;;;;358912;149;858892;-52
2022/05/04 02:51:20;;;;;;;5.46;3.49;;;;;;;;;;358832;150;863975;-52
2022/05/04 02:52:22;;;;;;;11.82;3.81;;;;;;;;;;358899;149;864440;-52
2022/05/04 02:53:24;;;;;;;9.95;3.07;;;;;;;;;;359015;150;856199;-53
2022/05/04 02:54:25;;;;;;;5.24;3.28;;;;;;;;;;358388;149;866590;-52
2022/05/04 02:55:27;;;;;;;5.49;3.24;;;;;;;;;;359000;149;856669;-52
2022/05/04 02:56:28;;;;;;;6.80;3.24;;;;;;;;;;358873;150;857624;-53
2022/05/04 02:57:30;;;;;;;5.13;3.29;;;;;;;;;;359124;149;864727;-52
2022/05/04 02:58:32;;;;;;;6.69;4.42;;;;;;;;;;359135;149;866362;-53
2022/05/04 02:59:33;;;;;;;9.85;4.47;;;;;;;;;;356713;149;857219;-53
2022/05/04 03:00:35;;;;;;;6.76;4.44;;;;;;;;;;358760;150;866691;-52
2022/05/04 03:02:57;;;;;;;7.62;3.98;;;;;;;;;;352521;149;865773;-53
2022/05/04 03:03:58;;;;;;;8.54;4.31;;;;;;;;;;354641;150;865593;-53
2022/05/04 03:05:01;;;;;;;7.18;4.25;;;;;;;;;;358961;150;857080;-53
2022/05/04 03:06:02;;;;;;;8.01;4.51;;;;;;;;;;359064;149;864779;-52
2022/05/04 03:07:04;;;;;;;9.47;4.64;;;;;;;;;;359244;150;857397;-53
2022/05/04 03:08:06;;;;;;;8.16;4.21;;;;;;;;;;359256;150;857774;-53
2022/05/04 03:09:08;;;;;;;10.57;4.44;;;;;;;;;;359155;150;864802;-52
2022/05/04 03:10:10;;;;;;;9.34;4.29;;;;;;;;;;358894;149;865044;-53
2022/05/04 03:12:32;;;;;;;7.10;4.23;;;;;;;;;;358896;150;857377;-52
2022/05/04 03:13:35;;;;;;;11.93;4.44;;;;;;;;;;358923;149;857661;-53
2022/05/04 03:14:37;;;;;;;9.71;3.69;;;;;;;;;;358807;149;857240;-51
2022/05/04 03:15:38;;;;;;;7.33;4.06;;;;;;;;;;359008;149;859176;-52
2022/05/04 03:16:40;;;;;;;5.82;4.04;;;;;;;;;;354697;150;865201;-53
2022/05/04 03:17:41;;;;;;;7.51;3.63;;;;;;;;;;359283;149;864877;-51
2022/05/04 03:18:43;;;;;;;5.76;3.35;;;;;;;;;;359300;149;857276;-52
2022/05/04 03:19:44;;;;;;;4.46;2.94;;;;;;;;;;359406;149;857351;-52
2022/05/04 03:20:46;;;;;;;6.75;3.41;;;;;;;;;;359366;150;857233;-52
2022/05/04 03:21:48;;;;;;;5.61;2.93;;;;;;;;;;359276;149;857163;-52
2022/05/04 03:22:50;;;;;;;7.99;3.89;;;;;;;;;;358817;150;864705;-52
2022/05/04 03:23:51;;;;;;;10.68;3.69;;;;;;;;;;358965;150;863836;-52
2022/05/04 03:24:53;;;;;;;4.19;3.02;;;;;;;;;;358889;150;857209;-52
2022/05/04 03:25:54;;;;;;;12.33;3.76;;;;;;;;;;359067;149;858971;-52
2022/05/04 03:26:56;;;;;;;8.94;3.91;;;;;;;;;;359222;149;866070;-52
2022/05/04 03:27:57;;;;;;;5.67;3.79;;;;;;;;;;359220;149;858693;-52
2022/05/04 03:28:59;;;;;;;6.24;3.63;;;;;;;;;;359191;149;858956;-52
2022/05/04 03:30:01;;;;;;;9.10;4.92;;;;;;;;;;359239;149;858939;-52
2022/05/04 03:31:02;;;;;;;5.39;3.89;;;;;;;;;;361134;148;858176;-52
2022/05/04 03:32:05;;;;;;;7.85;3.74;;;;;;;;;;361062;148;858325;-52
2022/05/04 03:33:06;;;;;;;7.85;3.82;;;;;;;;;;359124;149;858098;-53
2022/05/04 03:34:08;;;;;;;8.58;4.38;;;;;;;;;;359115;149;867130;-52
2022/05/04 03:35:09;;;;;;;9.79;4.48;;;;;;;;;;359099;149;858337;-52
2022/05/04 03:36:12;;;;;;;7.71;3.58;;;;;;;;;;359142;150;858309;-52
2022/05/04 03:37:14;;;;;;;6.03;3.56;;;;;;;;;;358842;148;857510;-52
2022/05/04 03:38:15;;;;;;;5.93;3.55;;;;;;;;;;359017;150;858427;-52
2022/05/04 03:39:17;;;;;;;6.16;3.56;;;;;;;;;;358834;149;858545;-52
2022/05/04 03:40:19;;;;;;;7.59;3.39;;;;;;;;;;359151;149;857294;-52
2022/05/04 03:41:23;;;;;;;8.32;3.99;;;;;;;;;;358849;149;865248;-52
2022/05/04 03:42:25;;;;;;;9.11;3.66;;;;;;;;;;358883;149;856530;-52
2022/05/04 03:43:26;;;;;;;8.69;3.46;;;;;;;;;;359010;149;856057;-52
2022/05/04 03:44:28;;;;;;;9.14;3.68;;;;;;;;;;358988;150;857297;-52
2022/05/04 03:45:29;;;;;;;9.50;3.47;;;;;;;;;;359138;149;857092;-53
2022/05/04 03:46:42;;;;;;;5.44;2.60;;;;;;;;;;359206;149;857046;-55
2022/05/04 03:47:43;;;;;;;7.22;3.70;;;;;;;;;;358441;150;865160;-52
2022/05/04 03:48:46;;;;;;;5.39;3.11;;;;;;;;;;359135;150;860211;-52
2022/05/04 03:49:47;;;;;;;5.15;3.15;;;;;;;;;;359225;149;857170;-52
2022/05/04 03:50:49;;;;;;;4.39;2.62;;;;;;;;;;358849;149;857658;-53
2022/05/04 03:51:50;;;;;;;7.67;3.16;;;;;;;;;;358891;149;857132;-52
2022/05/04 03:52:52;;;;;;;5.95;3.07;;;;;;;;;;359023;149;857323;-52
2022/05/04 03:53:53;;;;;;;6.72;3.28;;;;;;;;;;358792;150;857167;-53
2022/05/04 03:54:55;;;;;;;6.54;3.44;;;;;;;;;;359314;150;857038;-53
2022/05/04 03:55:56;;;;;;;8.30;3.15;;;;;;;;;;360062;148;857131;-53
2022/05/04 03:56:58;;;;;;;5.19;3.14;;;;;;;;;;360449;148;857125;-53
2022/05/04 03:58:00;;;;;;;4.89;2.65;;;;;;;;;;359223;150;864781;-52
2022/05/04 03:59:01;;;;;;;6.66;3.21;;;;;;;;;;359290;150;857235;-52
2022/05/04 04:00:04;;;;;;;4.91;3.41;;;;;;;;;;359189;149;857196;-51
2022/05/04 04:01:05;;;;;;;8.86;3.71;;;;;;;;;;359187;149;857232;-53
2022/05/04 04:02:07;;;;;;;5.83;2.86;;;;;;;;;;359280;149;858564;-50
2022/05/04 04:03:08;;;;;;;8.46;3.26;;;;;;;;;;358831;150;864798;-52
2022/05/04 04:04:10;;;;;;;6.05;3.35;;;;;;;;;;358800;149;857100;-52
2022/05/04 04:05:12;;;;;;;6.10;3.48;;;;;;;;;;359289;150;857349;-52
2022/05/04 04:06:14;;;;;;;5.85;3.29;;;;;;;;;;359159;150;857424;-53
2022/05/04 04:07:15;;;;;;;5.84;2.96;;;;;;;;;;359111;149;860175;-53
2022/05/04 04:08:17;;;;;;;5.86;2.99;;;;;;;;;;359162;149;857243;-53
2022/05/04 04:09:18;;;;;;;8.77;3.15;;;;;;;;;;359221;149;857321;-53
2022/05/04 04:10:20;;;;;;;5.74;2.88;;;;;;;;;;359196;149;856388;-52
2022/05/04 04:11:21;;;;;;;6.77;3.35;;;;;;;;;;358867;150;863824;-52
2022/05/04 04:12:23;;;;;;;6.24;3.19;;;;;;;;;;359069;149;856414;-53
2022/05/04 04:13:25;;;;;;;6.42;3.31;;;;;;;;;;358814;150;857292;-53
2022/05/04 04:14:26;;;;;;;7.24;3.36;;;;;;;;;;359003;149;856173;-52
2022/05/04 04:15:28;;;;;;;3.71;2.28;;;;;;;;;;358847;149;863556;-53
2022/05/04 04:16:30;;;;;;;3.97;2.59;;;;;;;;;;359304;149;857295;-52
2022/05/04 04:17:31;;;;;;;6.12;2.89;;;;;;;;;;359487;149;856079;-52
2022/05/04 04:18:33;;;;;;;6.05;2.48;;;;;;;;;;359312;149;865810;-53
2022/05/04 04:19:34;;;;;;;5.41;2.79;;;;;;;;;;359440;150;857545;-53
2022/05/04 04:21:56;;;;;;;6.24;2.83;;;;;;;;;;358995;150;864326;-52
2022/05/04 04:22:58;;;;;;;5.87;3.04;;;;;;;;;;359048;149;857418;-55
2022/05/04 04:24:00;;;;;;;6.11;3.19;;;;;;;;;;358894;150;862669;-53
2022/05/04 04:25:02;;;;;;;4.83;3.07;;;;;;;;;;358943;149;858109;-53
2022/05/04 04:26:04;;;;;;;6.67;3.10;;;;;;;;;;359111;149;867199;-52
2022/05/04 04:27:05;;;;;;;6.23;3.09;;;;;;;;;;359268;149;858585;-53
2022/05/04 04:28:07;;;;;;;7.84;3.93;;;;;;;;;;359209;149;857212;-52
2022/05/04 04:29:08;;;;;;;5.69;3.09;;;;;;;;;;358936;149;857635;-53
2022/05/04 04:30:11;;;;;;;5.92;3.06;;;;;;;;;;358883;149;858093;-53
2022/05/04 04:31:13;;;;;;;8.30;4.68;;;;;;;;;;359171;150;857354;-53
2022/05/04 04:32:14;;;;;;;5.92;3.29;;;;;;;;;;359186;149;865640;-53
2022/05/04 04:33:16;;;;;;;4.57;3.14;;;;;;;;;;359143;149;865393;-53
2022/05/04 04:34:17;;;;;;;6.31;3.35;;;;;;;;;;358990;149;856471;-53
2022/05/04 04:35:19;;;;;;;4.21;3.09;;;;;;;;;;358855;149;857354;-53
2022/05/04 04:36:20;;;;;;;4.22;3.10;;;;;;;;;;358960;149;856625;-53
2022/05/04 04:37:22;;;;;;;6.67;3.36;;;;;;;;;;354290;150;856243;-52
2022/05/04 04:38:24;;;;;;;7.05;3.42;;;;;;;;;;359301;149;856714;-53
2022/05/04 04:39:25;;;;;;;7.22;3.39;;;;;;;;;;359244;149;866304;-52
2022/05/04 04:40:27;;;;;;;7.21;3.07;;;;;;;;;;358950;150;858960;-52
2022/05/04 04:41:30;;;;;;;6.48;3.93;;;;;;;;;;359212;149;865297;-52
2022/05/04 04:42:31;;;;;;;7.22;3.15;;;;;;;;;;359083;150;858655;-52
2022/05/04 04:43:33;;;;;;;3.49;2.72;;;;;;;;;;359212;150;860223;-53
2022/05/04 04:44:34;;;;;;;8.35;3.41;;;;;;;;;;355610;149;857312;-52
2022/05/04 04:45:36;;;;;;;5.51;3.35;;;;;;;;;;359025;149;857756;-53
2022/05/04 04:46:37;;;;;;;7.82;3.29;;;;;;;;;;359282;149;857099;-53
2022/05/04 04:47:39;;;;;;;7.53;3.26;;;;;;;;;;359213;149;857152;-53
2022/05/04 04:48:40;;;;;;;8.57;2.80;;;;;;;;;;359183;149;857294;-53
2022/05/04 04:49:42;;;;;;;5.56;2.89;;;;;;;;;;359228;150;857272;-52
2022/05/04 04:50:44;;;;;;;6.63;3.06;;;;;;;;;;359071;150;857550;-53
2022/05/04 04:51:45;;;;;;;5.35;3.10;;;;;;;;;;359312;149;864818;-53
2022/05/04 04:52:47;;;;;;;6.54;3.33;;;;;;;;;;359234;150;864808;-53
2022/05/04 04:53:49;;;;;;;7.08;4.16;;;;;;;;;;358839;149;864889;-53
2022/05/04 04:54:50;;;;;;;4.52;3.19;;;;;;;;;;359341;149;864773;-53
2022/05/04 04:55:52;;;;;;;6.14;2.85;;;;;;;;;;359402;149;856334;-58
2022/05/04 04:56:53;;;;;;;6.29;2.98;;;;;;;;;;359158;149;864879;-54
2022/05/04 04:57:55;;;;;;;8.71;3.38;;;;;;;;;;358852;149;864807;-53
2022/05/04 04:58:57;;;;;;;5.41;3.11;;;;;;;;;;358975;149;857189;-52
2022/05/04 04:59:58;;;;;;;5.91;3.20;;;;;;;;;;359213;149;865236;-53
2022/05/04 05:01:00;;;;;;;7.45;3.05;;;;;;;;;;359244;149;859764;-53
2022/05/04 05:02:01;;;;;;;6.26;3.31;;;;;;;;;;359212;150;859517;-53
2022/05/04 05:03:03;;;;;;;7.73;3.23;;;;;;;;;;359056;150;859086;-53
2022/05/04 05:04:04;;;;;;;7.60;3.31;;;;;;;;;;359083;149;861170;-52
2022/05/04 05:05:06;;;;;;;11.69;3.61;;;;;;;;;;359205;149;857284;-53
2022/05/04 05:06:10;;;;;;;8.73;3.39;;;;;;;;;;358944;149;857227;-53
2022/05/04 05:07:11;;;;;;;6.69;3.34;;;;;;;;;;358963;149;858817;-53
2022/05/04 05:08:13;;;;;;;5.39;3.34;;;;;;;;;;359070;150;857245;-53
2022/05/04 05:09:14;;;;;;;7.26;3.49;;;;;;;;;;359034;149;859738;-53
2022/05/04 05:10:17;;;;;;;5.41;3.49;;;;;;;;;;358968;150;866300;-53
2022/05/04 05:11:19;;;;;;;8.29;3.49;;;;;;;;;;359060;150;859094;-52
2022/05/04 05:12:21;;;;;;;5.54;3.13;;;;;;;;;;359059;149;857421;-53
2022/05/04 05:13:23;;;;;;;6.21;3.15;;;;;;;;;;352980;152;856300;-52
2022/05/04 05:17:05;;;;;;;6.77;3.27;;;;;;;;;;356623;151;865169;-52
2022/05/04 05:18:07;;;;;;;7.36;2.93;;;;;;;;;;356764;151;860067;-52
2022/05/04 05:19:08;;;;;;;4.95;2.49;;;;;;;;;;356755;150;857320;-52
2022/05/04 05:20:11;;;;;;;6.46;3.12;;;;;;;;;;356734;150;857723;-52
2022/05/04 05:21:13;;;;;;;8.34;2.87;;;;;;;;;;356785;150;857730;-54
2022/05/04 05:22:15;;;;;;;9.68;2.78;;;;;;;;;;356802;151;857393;-53
2022/05/04 05:23:16;;;;;;;4.54;2.74;;;;;;;;;;356740;150;864836;-54
2022/05/04 05:24:18;;;;;;;4.01;2.50;;;;;;;;;;356760;150;857372;-53
2022/05/04 05:25:19;;;;;;;7.02;2.92;;;;;;;;;;356488;150;857316;-52
2022/05/04 05:26:21;;;;;;;5.60;2.33;;;;;;;;;;356393;151;856830;-53
2022/05/04 05:27:23;;;;;;;6.36;2.79;;;;;;;;;;356861;150;857710;-52
2022/05/04 05:28:24;;;;;;;5.51;2.74;;;;;;;;;;356793;151;857303;-53
2022/05/04 05:29:26;;;;;;;6.19;3.19;;;;;;;;;;356399;149;857182;-53
2022/05/04 05:30:27;;;;;;;5.36;2.54;;;;;;;;;;355614;151;864708;-53
2022/05/04 05:31:29;;;;;;;12.72;3.69;;;;;;;;;;357149;150;857086;-52
2022/05/04 05:32:30;;;;;;;4.23;2.67;;;;;;;;;;356879;150;857130;-53
2022/05/04 05:33:32;;;;;;;5.76;2.91;;;;;;;;;;356800;151;857222;-53
2022/05/04 05:34:34;;;;;;;8.41;3.17;;;;;;;;;;356771;150;858965;-52
2022/05/04 05:35:36;;;;;;;6.23;3.23;;;;;;;;;;356849;150;858151;-52
2022/05/04 05:36:39;;;;;;;7.15;3.25;;;;;;;;;;357206;151;858773;-52
2022/05/04 05:37:40;;;;;;;5.57;2.93;;;;;;;;;;356999;150;857998;-53
2022/05/04 05:38:41;;;;;;;5.89;2.91;;;;;;;;;;356857;150;858962;-52
2022/05/04 05:39:43;;;;;;;5.77;3.05;;;;;;;;;;356422;150;857347;-53
2022/05/04 05:40:45;;;;;;;5.50;3.12;;;;;;;;;;355704;151;860029;-51
2022/05/04 05:41:46;;;;;;;7.64;3.10;;;;;;;;;;355721;151;864775;-53
2022/05/04 05:42:48;;;;;;;5.24;2.94;;;;;;;;;;356037;151;857678;-53
2022/05/04 05:43:50;;;;;;;4.31;2.66;;;;;;;;;;356698;150;858049;-53
2022/05/04 05:44:52;;;;;;;7.53;3.07;;;;;;;;;;356774;150;857188;-53
2022/05/04 05:45:53;;;;;;;5.63;3.14;;;;;;;;;;356638;150;857926;-53
2022/05/04 05:46:55;;;;;;;6.84;2.92;;;;;;;;;;356951;150;857172;-53
2022/05/04 05:47:56;;;;;;;5.35;2.81;;;;;;;;;;357066;150;857076;-52
2022/05/04 05:48:58;;;;;;;5.94;2.30;;;;;;;;;;356892;150;857589;-52
2022/05/04 05:49:59;;;;;;;4.67;2.54;;;;;;;;;;356994;151;857600;-53
2022/05/04 05:51:05;;;;;;;7.30;2.71;;;;;;;;;;357045;150;857349;-53
2022/05/04 05:52:08;;;;;;;4.79;2.49;;;;;;;;;;356817;151;857867;-53
2022/05/04 05:53:09;;;;;;;3.94;2.36;;;;;;;;;;356926;150;859380;-52
2022/05/04 05:54:11;;;;;;;3.67;2.34;;;;;;;;;;356892;150;857322;-53
2022/05/04 05:55:12;;;;;;;5.81;2.42;;;;;;;;;;356613;151;857329;-52
2022/05/04 05:56:15;;;;;;;5.84;2.61;;;;;;;;;;356585;151;857350;-52
2022/05/04 05:57:17;;;;;;;7.55;2.56;;;;;;;;;;356964;150;865384;-52
2022/05/04 05:58:18;;;;;;;6.27;2.96;;;;;;;;;;356974;150;857304;-52
2022/05/04 05:59:20;;;;;;;3.69;2.43;;;;;;;;;;356954;150;856426;-52
2022/05/04 06:00:22;;;;;;;6.25;2.96;;;;;;;;;;351485;153;857347;-52
2022/05/04 06:01:23;;;;;;;6.34;2.43;;;;;;;;;;351328;151;864867;-52
2022/05/04 06:02:28;;;;;;;4.96;2.68;;;;;;;;;;355788;151;863943;-52
2022/05/04 06:03:30;;;;;;;5.21;2.85;;;;;;;;;;356957;150;857705;-54
2022/05/04 06:04:31;;;;;;;3.69;2.27;;;;;;;;;;354825;150;857994;-53
2022/05/04 06:05:33;;;;;;;5.90;2.53;;;;;;;;;;357150;150;859997;-54
2022/05/04 06:06:35;;;;;;;3.76;2.25;;;;;;;;;;357055;150;857658;-52
2022/05/04 06:07:37;;;;;;;4.74;2.43;;;;;;;;;;357122;150;864787;-53
2022/05/04 06:08:38;;;;;;;5.17;2.25;;;;;;;;;;357131;150;857353;-53
2022/05/04 06:09:40;;;;;;;6.49;2.44;;;;;;;;;;357047;150;857189;-52
2022/05/04 06:10:42;;;;;;;3.91;2.35;;;;;;;;;;357004;151;857269;-52
2022/05/04 06:11:43;;;;;;;5.18;2.62;;;;;;;;;;356834;150;857244;-52
2022/05/04 06:12:45;;;;;;;4.59;2.29;;;;;;;;;;357050;150;857269;-53
2022/05/04 06:13:48;;;;;;;3.53;2.19;;;;;;;;;;357065;150;857152;-53
2022/05/04 06:14:50;;;;;;;4.72;2.47;;;;;;;;;;356418;150;865258;-53
2022/05/04 06:15:52;;;;;;;3.89;2.34;;;;;;;;;;357020;150;856362;-53
2022/05/04 06:16:53;;;;;;;3.22;2.11;;;;;;;;;;356956;150;859862;-52
2022/05/04 06:17:56;;;;;;;7.03;2.33;;;;;;;;;;357082;150;864491;-53
2022/05/04 06:18:57;;;;;;;3.98;2.41;;;;;;;;;;357124;150;857244;-53
2022/05/04 06:19:59;;;;;;;7.04;2.69;;;;;;;;;;357004;150;857147;-53
2022/05/04 06:21:00;;;;;;;3.24;1.97;;;;;;;;;;356831;150;857528;-52
2022/05/04 06:22:02;;;;;;;3.78;2.30;;;;;;;;;;356918;150;857304;-53
2022/05/04 06:23:04;;;;;;;6.44;2.58;;;;;;;;;;356733;150;857698;-53
2022/05/04 06:24:06;;;;;;;6.65;2.55;;;;;;;;;;356669;151;866106;-54
2022/05/04 06:25:08;;;;;;;4.39;2.38;;;;;;;;;;356759;150;859600;-53